sensor_id;sensor_type;location;lat;lon;timestamp;pressure;altitude;pressure_sealevel;temperature;humidity
15382;BME280;7789;51.364;12.358;2023-07-31T00:03:24;99934.75;;;18.25;100.00
15382;BME280;7789;51.364;12.358;2023-07-31T00:08:30;99928.31;;;18.27;100.00
15382;BME280;7789;51.364;12.358;2023-07-31T00:13:34;99923.81;;;18.28;100.00
15382;BME280;7789;51.364;12.358;2023-07-31T00:18:38;99923.47;;;18.31;100.00
15382;BME280;7789;51.364;12.358;2023-07-31T00:23:43;99916.16;;;18.33;100.00
15382;BME280;7789;51.364;12.358;2023-07-31T00:28:48;99921.06;;;18.36;100.00
15382;BME280;7789;51.364;12.358;2023-07-31T00:33:52;99918.22;;;18.37;100.00
15382;BME280;7789;51.364;12.358;2023-07-31T00:38:56;99917.03;;;18.40;100.00
15382;BME280;7789;51.364;12.358;2023-07-31T00:44:00;99917.69;;;18.42;100.00
15382;BME280;7789;51.364;12.358;2023-07-31T00:49:05;99909.72;;;18.42;100.00
15382;BME280;7789;51.364;12.358;2023-07-31T00:54:13;99912.63;;;18.47;100.00
15382;BME280;7789;51.364;12.358;2023-07-31T00:59:17;99900.84;;;18.49;100.00
15382;BME280;7789;51.364;12.358;2023-07-31T01:04:21;99895.19;;;18.52;100.00
15382;BME280;7789;51.364;12.358;2023-07-31T01:09:36;99902.75;;;18.55;100.00
15382;BME280;7789;51.364;12.358;2023-07-31T01:14:41;99889.97;;;18.59;100.00
15382;BME280;7789;51.364;12.358;2023-07-31T01:19:54;99894.88;;;18.62;100.00
15382;BME280;7789;51.364;12.358;2023-07-31T01:25:12;99897.34;;;18.63;100.00
15382;BME280;7789;51.364;12.358;2023-07-31T01:30:24;99881.09;;;18.66;100.00
15382;BME280;7789;51.364;12.358;2023-07-31T01:35:29;99864.81;;;18.69;100.00
15382;BME280;7789;51.364;12.358;2023-07-31T01:40:33;99876.69;;;18.73;100.00
15382;BME280;7789;51.364;12.358;2023-07-31T01:45:39;99874.03;;;18.73;100.00
15382;BME280;7789;51.364;12.358;2023-07-31T01:50:43;99880.53;;;18.71;100.00
15382;BME280;7789;51.364;12.358;2023-07-31T01:55:47;99872.56;;;18.71;100.00
15382;BME280;7789;51.364;12.358;2023-07-31T02:00:52;99867.66;;;18.68;100.00
15382;BME280;7789;51.364;12.358;2023-07-31T02:05:55;99862.53;;;18.66;100.00
15382;BME280;7789;51.364;12.358;2023-07-31T02:11:00;99849.13;;;18.68;100.00
15382;BME280;7789;51.364;12.358;2023-07-31T02:16:05;99844.22;;;18.65;100.00
15382;BME280;7789;51.364;12.358;2023-07-31T02:21:09;99839.25;;;18.62;100.00
15382;BME280;7789;51.364;12.358;2023-07-31T02:26:15;99844.38;;;18.63;100.00
15382;BME280;7789;51.364;12.358;2023-07-31T02:31:20;99831.94;;;18.64;100.00
15382;BME280;7789;51.364;12.358;2023-07-31T02:36:24;99833.16;;;18.61;100.00
15382;BME280;7789;51.364;12.358;2023-07-31T02:41:28;99830.53;;;18.61;100.00
15382;BME280;7789;51.364;12.358;2023-07-31T02:46:35;99820.09;;;18.60;100.00
15382;BME280;7789;51.364;12.358;2023-07-31T02:51:41;99821.13;;;18.59;100.00
15382;BME280;7789;51.364;12.358;2023-07-31T02:56:45;99820.31;;;18.58;100.00
15382;BME280;7789;51.364;12.358;2023-07-31T03:01:51;99810.91;;;18.56;100.00
15382;BME280;7789;51.364;12.358;2023-07-31T03:06:54;99816.19;;;18.56;100.00
15382;BME280;7789;51.364;12.358;2023-07-31T03:11:58;99815.56;;;18.54;100.00
15382;BME280;7789;51.364;12.358;2023-07-31T03:17:03;99812.69;;;18.49;100.00
15382;BME280;7789;51.364;12.358;2023-07-31T03:22:07;99810.03;;;18.49;100.00
15382;BME280;7789;51.364;12.358;2023-07-31T03:27:11;99805.53;;;18.49;100.00
15382;BME280;7789;51.364;12.358;2023-07-31T03:32:17;99798.78;;;18.47;100.00
15382;BME280;7789;51.364;12.358;2023-07-31T03:37:22;99804.28;;;18.45;100.00
15382;BME280;7789;51.364;12.358;2023-07-31T03:42:28;99791.44;;;18.42;100.00
15382;BME280;7789;51.364;12.358;2023-07-31T03:47:33;99795.28;;;18.40;100.00
15382;BME280;7789;51.364;12.358;2023-07-31T03:52:37;99788.09;;;18.34;100.00
15382;BME280;7789;51.364;12.358;2023-07-31T03:57:41;99782.34;;;18.30;100.00
15382;BME280;7789;51.364;12.358;2023-07-31T04:02:46;99792.66;;;18.25;100.00
15382;BME280;7789;51.364;12.358;2023-07-31T04:07:51;99786.47;;;18.18;100.00
15382;BME280;7789;51.364;12.358;2023-07-31T04:12:55;99787.94;;;18.21;100.00
15382;BME280;7789;51.364;12.358;2023-07-31T04:18:01;99780.38;;;18.18;100.00
15382;BME280;7789;51.364;12.358;2023-07-31T04:23:04;99781.56;;;18.15;100.00
15382;BME280;7789;51.364;12.358;2023-07-31T04:28:08;99779.16;;;18.20;100.00
15382;BME280;7789;51.364;12.358;2023-07-31T04:33:15;99788.72;;;18.21;100.00
15382;BME280;7789;51.364;12.358;2023-07-31T04:38:19;99780.63;;;18.23;100.00
15382;BME280;7789;51.364;12.358;2023-07-31T04:43:23;99770.22;;;18.21;100.00
15382;BME280;7789;51.364;12.358;2023-07-31T04:48:29;99781.44;;;18.23;100.00
15382;BME280;7789;51.364;12.358;2023-07-31T04:53:33;99781.63;;;18.22;100.00
15382;BME280;7789;51.364;12.358;2023-07-31T04:58:36;99777.16;;;18.22;100.00
15382;BME280;7789;51.364;12.358;2023-07-31T05:03:41;99776.97;;;18.24;100.00
15382;BME280;7789;51.364;12.358;2023-07-31T05:08:45;99774.69;;;18.21;100.00
15382;BME280;7789;51.364;12.358;2023-07-31T05:13:54;99774.06;;;18.19;100.00
15382;BME280;7789;51.364;12.358;2023-07-31T05:19:06;99782.47;;;18.22;100.00
15382;BME280;7789;51.364;12.358;2023-07-31T05:24:10;99784.44;;;18.20;100.00
15382;BME280;7789;51.364;12.358;2023-07-31T05:29:18;99776.16;;;18.23;100.00
15382;BME280;7789;51.364;12.358;2023-07-31T05:34:25;99780.63;;;18.23;100.00
15382;BME280;7789;51.364;12.358;2023-07-31T05:39:33;99766.59;;;18.22;100.00
15382;BME280;7789;51.364;12.358;2023-07-31T05:44:38;99771.66;;;18.24;100.00
15382;BME280;7789;51.364;12.358;2023-07-31T05:49:42;99767.50;;;18.29;100.00
15382;BME280;7789;51.364;12.358;2023-07-31T05:54:49;99776.28;;;18.36;100.00
15382;BME280;7789;51.364;12.358;2023-07-31T05:59:53;99773.09;;;18.41;100.00
15382;BME280;7789;51.364;12.358;2023-07-31T06:04:59;99769.03;;;18.45;100.00
15382;BME280;7789;51.364;12.358;2023-07-31T06:10:07;99763.19;;;18.49;100.00
15382;BME280;7789;51.364;12.358;2023-07-31T06:15:12;99766.91;;;18.55;100.00
15382;BME280;7789;51.364;12.358;2023-07-31T06:20:23;99769.00;;;18.59;100.00
15382;BME280;7789;51.364;12.358;2023-07-31T06:25:27;99771.03;;;18.64;100.00
15382;BME280;7789;51.364;12.358;2023-07-31T06:30:30;99766.63;;;18.71;100.00
15382;BME280;7789;51.364;12.358;2023-07-31T06:35:36;99767.69;;;18.76;100.00
15382;BME280;7789;51.364;12.358;2023-07-31T06:40:39;99775.09;;;18.87;100.00
15382;BME280;7789;51.364;12.358;2023-07-31T06:45:43;99767.59;;;18.90;100.00
15382;BME280;7789;51.364;12.358;2023-07-31T06:50:50;99767.22;;;18.93;100.00
15382;BME280;7789;51.364;12.358;2023-07-31T06:55:59;99764.81;;;18.98;100.00
15382;BME280;7789;51.364;12.358;2023-07-31T07:01:03;99771.75;;;18.99;100.00
15382;BME280;7789;51.364;12.358;2023-07-31T07:06:08;99776.22;;;18.99;100.00
15382;BME280;7789;51.364;12.358;2023-07-31T07:11:11;99766.63;;;18.98;100.00
15382;BME280;7789;51.364;12.358;2023-07-31T07:16:15;99770.91;;;18.99;100.00
15382;BME280;7789;51.364;12.358;2023-07-31T07:21:20;99772.78;;;19.05;100.00
15382;BME280;7789;51.364;12.358;2023-07-31T07:26:24;99767.34;;;19.13;100.00
15382;BME280;7789;51.364;12.358;2023-07-31T07:31:28;99772.09;;;19.17;100.00
15382;BME280;7789;51.364;12.358;2023-07-31T07:36:33;99765.44;;;19.28;100.00
15382;BME280;7789;51.364;12.358;2023-07-31T07:41:39;99770.56;;;19.36;100.00
15382;BME280;7789;51.364;12.358;2023-07-31T07:46:43;99762.50;;;19.50;100.00
15382;BME280;7789;51.364;12.358;2023-07-31T07:51:48;99750.28;;;19.62;100.00
15382;BME280;7789;51.364;12.358;2023-07-31T07:56:52;99757.25;;;19.70;100.00
15382;BME280;7789;51.364;12.358;2023-07-31T08:01:56;99759.31;;;19.74;100.00
15382;BME280;7789;51.364;12.358;2023-07-31T08:07:02;99759.53;;;19.79;100.00
15382;BME280;7789;51.364;12.358;2023-07-31T08:12:06;99751.38;;;19.81;100.00
15382;BME280;7789;51.364;12.358;2023-07-31T08:17:11;99755.28;;;19.91;100.00
15382;BME280;7789;51.364;12.358;2023-07-31T08:22:17;99749.22;;;20.04;100.00
15382;BME280;7789;51.364;12.358;2023-07-31T08:27:20;99743.13;;;20.10;100.00
15382;BME280;7789;51.364;12.358;2023-07-31T08:32:24;99748.06;;;20.19;100.00
15382;BME280;7789;51.364;12.358;2023-07-31T08:37:32;99744.38;;;20.33;100.00
15382;BME280;7789;51.364;12.358;2023-07-31T08:42:43;99745.22;;;20.40;100.00
15382;BME280;7789;51.364;12.358;2023-07-31T08:47:48;99746.25;;;20.46;100.00
15382;BME280;7789;51.364;12.358;2023-07-31T08:52:56;99756.88;;;20.52;100.00
15382;BME280;7789;51.364;12.358;2023-07-31T08:58:00;99751.16;;;20.55;100.00
15382;BME280;7789;51.364;12.358;2023-07-31T09:03:09;99754.41;;;20.70;100.00
15382;BME280;7789;51.364;12.358;2023-07-31T09:08:18;99754.19;;;20.78;100.00
15382;BME280;7789;51.364;12.358;2023-07-31T09:13:22;99751.38;;;20.86;100.00
15382;BME280;7789;51.364;12.358;2023-07-31T09:18:26;99748.50;;;20.87;100.00
15382;BME280;7789;51.364;12.358;2023-07-31T09:23:46;99749.94;;;20.96;100.00
15382;BME280;7789;51.364;12.358;2023-07-31T09:28:58;99763.00;;;20.98;100.00
15382;BME280;7789;51.364;12.358;2023-07-31T09:34:02;99744.19;;;21.06;100.00
15382;BME280;7789;51.364;12.358;2023-07-31T09:39:10;99739.66;;;21.19;100.00
15382;BME280;7789;51.364;12.358;2023-07-31T09:44:15;99736.56;;;21.22;99.77
15382;BME280;7789;51.364;12.358;2023-07-31T09:49:21;99726.09;;;21.27;99.38
15382;BME280;7789;51.364;12.358;2023-07-31T09:54:30;99724.63;;;21.44;100.00
15382;BME280;7789;51.364;12.358;2023-07-31T09:59:34;99723.38;;;21.53;100.00
15382;BME280;7789;51.364;12.358;2023-07-31T10:04:42;99727.47;;;21.62;100.00
15382;BME280;7789;51.364;12.358;2023-07-31T10:10:00;99718.81;;;21.67;100.00
15382;BME280;7789;51.364;12.358;2023-07-31T10:15:07;99718.94;;;21.85;100.00
15382;BME280;7789;51.364;12.358;2023-07-31T10:20:13;99709.00;;;22.05;100.00
15382;BME280;7789;51.364;12.358;2023-07-31T10:25:22;99699.78;;;22.32;99.00
15382;BME280;7789;51.364;12.358;2023-07-31T10:30:28;99708.50;;;22.45;96.31
15382;BME280;7789;51.364;12.358;2023-07-31T10:35:34;99698.63;;;22.52;93.48
15382;BME280;7789;51.364;12.358;2023-07-31T10:40:43;99709.50;;;22.51;92.39
15382;BME280;7789;51.364;12.358;2023-07-31T10:45:48;99692.47;;;22.52;91.25
15382;BME280;7789;51.364;12.358;2023-07-31T10:50:55;99690.78;;;22.57;90.58
15382;BME280;7789;51.364;12.358;2023-07-31T10:56:02;99684.75;;;22.68;90.90
15382;BME280;7789;51.364;12.358;2023-07-31T11:01:06;99681.22;;;22.92;89.23
15382;BME280;7789;51.364;12.358;2023-07-31T11:06:12;99667.44;;;22.95;87.02
15382;BME280;7789;51.364;12.358;2023-07-31T11:11:21;99660.13;;;23.08;87.41
15382;BME280;7789;51.364;12.358;2023-07-31T11:16:26;99638.97;;;23.43;86.91
15382;BME280;7789;51.364;12.358;2023-07-31T11:21:39;99647.97;;;23.60;83.84
15382;BME280;7789;51.364;12.358;2023-07-31T11:26:53;99634.09;;;23.69;80.88
15382;BME280;7789;51.364;12.358;2023-07-31T11:31:57;99638.63;;;23.69;79.93
15382;BME280;7789;51.364;12.358;2023-07-31T11:37:01;99623.25;;;23.82;79.31
15382;BME280;7789;51.364;12.358;2023-07-31T11:42:07;99619.81;;;24.05;77.09
15382;BME280;7789;51.364;12.358;2023-07-31T11:47:11;99613.78;;;24.09;75.96
15382;BME280;7789;51.364;12.358;2023-07-31T11:52:16;99618.31;;;24.20;76.81
15382;BME280;7789;51.364;12.358;2023-07-31T11:57:24;99623.28;;;24.17;74.84
15382;BME280;7789;51.364;12.358;2023-07-31T12:02:30;99616.56;;;24.14;74.44
15382;BME280;7789;51.364;12.358;2023-07-31T12:07:46;99601.81;;;24.23;75.62
15382;BME280;7789;51.364;12.358;2023-07-31T12:13:03;99606.34;;;24.11;77.68
15382;BME280;7789;51.364;12.358;2023-07-31T12:18:12;99602.50;;;24.07;76.50
15382;BME280;7789;51.364;12.358;2023-07-31T12:23:23;99602.75;;;24.17;75.85
15382;BME280;7789;51.364;12.358;2023-07-31T12:28:37;99594.03;;;24.10;73.81
15382;BME280;7789;51.364;12.358;2023-07-31T12:33:42;99598.81;;;24.20;73.12
15382;BME280;7789;51.364;12.358;2023-07-31T12:38:46;99585.66;;;24.30;72.91
15382;BME280;7789;51.364;12.358;2023-07-31T12:43:52;99586.59;;;24.35;71.73
15382;BME280;7789;51.364;12.358;2023-07-31T12:48:56;99575.66;;;24.25;71.48
15382;BME280;7789;51.364;12.358;2023-07-31T12:54:03;99569.75;;;24.23;72.02
15382;BME280;7789;51.364;12.358;2023-07-31T12:59:10;99550.81;;;24.36;72.23
15382;BME280;7789;51.364;12.358;2023-07-31T13:04:18;99550.47;;;24.44;72.26
15382;BME280;7789;51.364;12.358;2023-07-31T13:09:22;99532.44;;;24.51;72.20
15382;BME280;7789;51.364;12.358;2023-07-31T13:14:28;99524.19;;;24.64;71.68
15382;BME280;7789;51.364;12.358;2023-07-31T13:19:33;99515.16;;;24.81;68.54
15382;BME280;7789;51.364;12.358;2023-07-31T13:24:36;99526.03;;;25.03;65.16
15382;BME280;7789;51.364;12.358;2023-07-31T13:29:42;99525.59;;;25.34;65.71
15382;BME280;7789;51.364;12.358;2023-07-31T13:34:47;99512.75;;;25.36;63.95
15382;BME280;7789;51.364;12.358;2023-07-31T13:39:54;99508.31;;;25.58;62.94
15382;BME280;7789;51.364;12.358;2023-07-31T13:45:04;99528.03;;;25.52;62.13
15382;BME280;7789;51.364;12.358;2023-07-31T13:50:11;99526.38;;;25.34;61.63
15382;BME280;7789;51.364;12.358;2023-07-31T13:55:18;99515.25;;;25.26;63.62
15382;BME280;7789;51.364;12.358;2023-07-31T14:00:27;99516.16;;;25.03;62.22
15382;BME280;7789;51.364;12.358;2023-07-31T14:05:32;99510.66;;;24.82;63.91
15382;BME280;7789;51.364;12.358;2023-07-31T14:10:38;99497.31;;;24.71;64.27
15382;BME280;7789;51.364;12.358;2023-07-31T14:15:47;99504.06;;;24.62;65.16
15382;BME280;7789;51.364;12.358;2023-07-31T14:20:52;99494.44;;;24.49;66.34
15382;BME280;7789;51.364;12.358;2023-07-31T14:25:56;99484.81;;;24.37;65.95
15382;BME280;7789;51.364;12.358;2023-07-31T14:31:04;99481.84;;;24.50;65.54
15382;BME280;7789;51.364;12.358;2023-07-31T14:36:08;99495.22;;;24.50;66.15
15382;BME280;7789;51.364;12.358;2023-07-31T14:41:13;99491.88;;;24.54;66.29
15382;BME280;7789;51.364;12.358;2023-07-31T14:46:18;99498.28;;;24.53;65.81
15382;BME280;7789;51.364;12.358;2023-07-31T14:51:35;99499.91;;;24.43;65.47
15382;BME280;7789;51.364;12.358;2023-07-31T14:56:40;99492.34;;;24.40;64.89
15382;BME280;7789;51.364;12.358;2023-07-31T15:01:48;99496.09;;;24.27;64.07
15382;BME280;7789;51.364;12.358;2023-07-31T15:06:54;99496.69;;;24.18;64.65
15382;BME280;7789;51.364;12.358;2023-07-31T15:11:58;99484.94;;;24.07;64.69
15382;BME280;7789;51.364;12.358;2023-07-31T15:17:05;99470.44;;;24.03;64.40
15382;BME280;7789;51.364;12.358;2023-07-31T15:22:15;99473.69;;;24.05;65.36
15382;BME280;7789;51.364;12.358;2023-07-31T15:27:20;99473.59;;;24.00;64.93
15382;BME280;7789;51.364;12.358;2023-07-31T15:32:28;99465.47;;;23.95;64.98
15382;BME280;7789;51.364;12.358;2023-07-31T15:37:36;99466.84;;;23.86;65.28
15382;BME280;7789;51.364;12.358;2023-07-31T15:42:40;99469.84;;;23.78;65.15
15382;BME280;7789;51.364;12.358;2023-07-31T15:47:55;99462.31;;;23.75;66.66
15382;BME280;7789;51.364;12.358;2023-07-31T15:53:00;99451.72;;;23.69;65.94
15382;BME280;7789;51.364;12.358;2023-07-31T15:58:10;99463.78;;;23.71;65.87
15382;BME280;7789;51.364;12.358;2023-07-31T16:03:17;99452.53;;;23.69;66.70
15382;BME280;7789;51.364;12.358;2023-07-31T16:08:23;99458.13;;;23.68;66.89
15382;BME280;7789;51.364;12.358;2023-07-31T16:13:27;99461.00;;;23.66;67.42
15382;BME280;7789;51.364;12.358;2023-07-31T16:18:32;99454.16;;;23.59;68.54
15382;BME280;7789;51.364;12.358;2023-07-31T16:23:35;99451.47;;;23.59;68.33
15382;BME280;7789;51.364;12.358;2023-07-31T16:28:39;99446.81;;;23.54;68.31
15382;BME280;7789;51.364;12.358;2023-07-31T16:33:44;99451.38;;;23.54;68.08
15382;BME280;7789;51.364;12.358;2023-07-31T16:38:49;99447.66;;;23.55;68.23
15382;BME280;7789;51.364;12.358;2023-07-31T16:43:54;99442.53;;;23.53;68.93
15382;BME280;7789;51.364;12.358;2023-07-31T16:49:10;99434.66;;;23.58;68.56
15382;BME280;7789;51.364;12.358;2023-07-31T16:54:14;99421.19;;;23.65;68.91
15382;BME280;7789;51.364;12.358;2023-07-31T16:59:18;99413.78;;;23.67;69.09
15382;BME280;7789;51.364;12.358;2023-07-31T17:04:24;99403.09;;;23.67;68.71
15382;BME280;7789;51.364;12.358;2023-07-31T17:09:29;99406.00;;;23.65;68.94
15382;BME280;7789;51.364;12.358;2023-07-31T17:14:38;99396.25;;;23.59;68.92
15382;BME280;7789;51.364;12.358;2023-07-31T17:19:44;99396.69;;;23.56;69.15
15382;BME280;7789;51.364;12.358;2023-07-31T17:24:50;99405.16;;;23.53;69.20
15382;BME280;7789;51.364;12.358;2023-07-31T17:29:55;99412.59;;;23.51;69.23
15382;BME280;7789;51.364;12.358;2023-07-31T17:35:03;99416.78;;;23.47;69.75
15382;BME280;7789;51.364;12.358;2023-07-31T17:40:11;99416.06;;;23.40;70.02
15382;BME280;7789;51.364;12.358;2023-07-31T17:45:17;99411.19;;;23.37;69.46
15382;BME280;7789;51.364;12.358;2023-07-31T17:50:25;99398.91;;;23.36;69.90
15382;BME280;7789;51.364;12.358;2023-07-31T17:55:33;99391.56;;;23.32;69.57
15382;BME280;7789;51.364;12.358;2023-07-31T18:00:39;99392.75;;;23.24;70.02
15382;BME280;7789;51.364;12.358;2023-07-31T18:05:47;99395.63;;;23.23;70.11
15382;BME280;7789;51.364;12.358;2023-07-31T18:10:58;99404.91;;;23.20;70.19
15382;BME280;7789;51.364;12.358;2023-07-31T18:16:03;99385.66;;;23.18;70.43
15382;BME280;7789;51.364;12.358;2023-07-31T18:21:09;99393.53;;;23.13;71.06
15382;BME280;7789;51.364;12.358;2023-07-31T18:26:20;99392.09;;;23.11;71.40
15382;BME280;7789;51.364;12.358;2023-07-31T18:31:24;99378.88;;;23.04;71.41
15382;BME280;7789;51.364;12.358;2023-07-31T18:36:31;99368.09;;;22.99;71.26
15382;BME280;7789;51.364;12.358;2023-07-31T18:41:36;99361.59;;;22.95;72.07
15382;BME280;7789;51.364;12.358;2023-07-31T18:46:41;99358.56;;;22.92;71.83
15382;BME280;7789;51.364;12.358;2023-07-31T18:51:50;99356.81;;;22.86;72.03
15382;BME280;7789;51.364;12.358;2023-07-31T18:56:58;99350.66;;;22.85;72.86
15382;BME280;7789;51.364;12.358;2023-07-31T19:02:04;99349.97;;;22.78;73.24
15382;BME280;7789;51.364;12.358;2023-07-31T19:07:11;99333.38;;;22.76;73.25
15382;BME280;7789;51.364;12.358;2023-07-31T19:12:16;99332.91;;;22.68;73.31
15382;BME280;7789;51.364;12.358;2023-07-31T19:17:23;99324.75;;;22.63;73.54
15382;BME280;7789;51.364;12.358;2023-07-31T19:22:29;99316.75;;;22.63;73.92
15382;BME280;7789;51.364;12.358;2023-07-31T19:27:34;99319.31;;;22.58;74.46
15382;BME280;7789;51.364;12.358;2023-07-31T19:32:38;99321.84;;;22.53;74.73
15382;BME280;7789;51.364;12.358;2023-07-31T19:37:44;99326.00;;;22.49;74.79
15382;BME280;7789;51.364;12.358;2023-07-31T19:42:48;99313.13;;;22.46;75.31
15382;BME280;7789;51.364;12.358;2023-07-31T19:47:53;99291.47;;;22.43;75.07
15382;BME280;7789;51.364;12.358;2023-07-31T19:52:59;99287.19;;;22.42;75.21
15382;BME280;7789;51.364;12.358;2023-07-31T19:58:03;99274.31;;;22.39;75.26
15382;BME280;7789;51.364;12.358;2023-07-31T20:03:07;99278.66;;;22.33;75.85
15382;BME280;7789;51.364;12.358;2023-07-31T20:08:13;99284.47;;;22.30;75.72
15382;BME280;7789;51.364;12.358;2023-07-31T20:13:16;99291.84;;;22.28;75.49
15382;BME280;7789;51.364;12.358;2023-07-31T20:18:20;99266.47;;;22.26;75.85
15382;BME280;7789;51.364;12.358;2023-07-31T20:23:26;99260.56;;;22.24;75.90
15382;BME280;7789;51.364;12.358;2023-07-31T20:28:44;99242.59;;;22.19;75.35
15382;BME280;7789;51.364;12.358;2023-07-31T20:33:48;99237.50;;;22.18;75.60
15382;BME280;7789;51.364;12.358;2023-07-31T20:38:54;99243.66;;;22.18;75.56
15382;BME280;7789;51.364;12.358;2023-07-31T20:43:58;99240.03;;;22.13;75.67
15382;BME280;7789;51.364;12.358;2023-07-31T20:49:11;99220.81;;;22.11;76.33
15382;BME280;7789;51.364;12.358;2023-07-31T20:54:15;99220.81;;;22.11;76.01
15382;BME280;7789;51.364;12.358;2023-07-31T20:59:21;99221.84;;;22.10;76.46
15382;BME280;7789;51.364;12.358;2023-07-31T21:04:25;99222.06;;;22.08;76.59
15382;BME280;7789;51.364;12.358;2023-07-31T21:09:31;99222.06;;;22.08;77.12
15382;BME280;7789;51.364;12.358;2023-07-31T21:14:34;99218.38;;;22.09;77.20
15382;BME280;7789;51.364;12.358;2023-07-31T21:19:38;99219.41;;;22.08;77.43
15382;BME280;7789;51.364;12.358;2023-07-31T21:24:46;99223.34;;;22.06;78.26
15382;BME280;7789;51.364;12.358;2023-07-31T21:29:50;99229.09;;;22.03;78.81
15382;BME280;7789;51.364;12.358;2023-07-31T21:34:55;99217.06;;;22.00;80.40
15382;BME280;7789;51.364;12.358;2023-07-31T21:40:01;99215.41;;;21.88;83.43
15382;BME280;7789;51.364;12.358;2023-07-31T21:45:07;99211.44;;;21.79;85.76
15382;BME280;7789;51.364;12.358;2023-07-31T21:50:11;99207.91;;;21.67;87.95
15382;BME280;7789;51.364;12.358;2023-07-31T21:55:17;99211.31;;;21.56;89.67
15382;BME280;7789;51.364;12.358;2023-07-31T22:00:21;99199.31;;;21.47;90.47
15382;BME280;7789;51.364;12.358;2023-07-31T22:05:24;99195.50;;;21.43;92.08
15382;BME280;7789;51.364;12.358;2023-07-31T22:10:29;99197.66;;;21.34;94.82
15382;BME280;7789;51.364;12.358;2023-07-31T22:15:33;99190.19;;;21.25;97.12
15382;BME280;7789;51.364;12.358;2023-07-31T22:20:37;99185.84;;;21.12;100.00
15382;BME280;7789;51.364;12.358;2023-07-31T22:25:42;99173.06;;;21.03;100.00
15382;BME280;7789;51.364;12.358;2023-07-31T22:30:45;99164.91;;;20.98;100.00
15382;BME280;7789;51.364;12.358;2023-07-31T22:35:49;99144.56;;;20.92;100.00
15382;BME280;7789;51.364;12.358;2023-07-31T22:40:55;99134.81;;;20.86;100.00
15382;BME280;7789;51.364;12.358;2023-07-31T22:45:58;99123.91;;;20.69;100.00
15382;BME280;7789;51.364;12.358;2023-07-31T22:51:04;99111.28;;;20.65;100.00
15382;BME280;7789;51.364;12.358;2023-07-31T22:56:09;99111.00;;;20.55;100.00
15382;BME280;7789;51.364;12.358;2023-07-31T23:01:13;99095.31;;;20.47;100.00
15382;BME280;7789;51.364;12.358;2023-07-31T23:06:19;99079.03;;;20.44;100.00
15382;BME280;7789;51.364;12.358;2023-07-31T23:11:24;99074.16;;;20.41;100.00
15382;BME280;7789;51.364;12.358;2023-07-31T23:16:29;99048.09;;;20.31;100.00
15382;BME280;7789;51.364;12.358;2023-07-31T23:21:32;99048.53;;;20.28;100.00
15382;BME280;7789;51.364;12.358;2023-07-31T23:26:37;99040.50;;;20.17;100.00
15382;BME280;7789;51.364;12.358;2023-07-31T23:31:42;99033.47;;;20.04;100.00
15382;BME280;7789;51.364;12.358;2023-07-31T23:36:47;99026.78;;;19.95;100.00
15382;BME280;7789;51.364;12.358;2023-07-31T23:41:52;99016.16;;;19.95;100.00
15382;BME280;7789;51.364;12.358;2023-07-31T23:46:55;98995.88;;;19.83;100.00
15382;BME280;7789;51.364;12.358;2023-07-31T23:51:58;98996.31;;;19.80;100.00
15382;BME280;7789;51.364;12.358;2023-07-31T23:57:04;98983.91;;;19.74;100.00
